Killeen, TX (76549)

2:10 PM CDT on March 24, 2017 (GMT -0500)
Oakalla Rd | | Change Station

Elev 765 ft 31.01 °N, 97.89 °W | Updated 1 second ago

Clear
Clear
80.7 °F
Feels Like 79 °F
N
7.0
Wind Variable Wind from SSW

Today
High -- | Low -- °F
--% Chance of Precip.
Yesterday
High -- | Low -- °F
Precip. -- in
Pressure 29.89 in
Visibility 10.0 miles
Clouds Few 6000 ft
Heat Index 79 °F
Dew Point 43 °F
Humidity 27%
Rainfall 0.15 in
Snow Depth Not available.
7:29 AM 7:45 PM
Waning Crescent, 13% visible
METAR KGRK 241858Z AUTO 23007KT 10SM FEW060 24/10 A2991 RMK AO2 SLP120 T02380096
Pressure 29.89 in
Visibility 10.0 miles
Clouds Few 6000 ft
Heat Index 79 °F
Dew Point 43 °F
Humidity 27%
Rainfall 0.15 in
Snow Depth Not available.
7:29 AM 7:45 PM
Waning Crescent, 13% visible
METAR KGRK 241858Z AUTO 23007KT 10SM FEW060 24/10 A2991 RMK AO2 SLP120 T02380096

Get Severe Weather Alerts

Thanks for signing up!

Be on the lookout for a verification email in your inbox.

You'll start receiving the daily forecast at 8 AM.

×

10-Day Weather Forecast

Almanac

Astronomy

Mar. 24, 2017 Rise Set
Actual Time
Civil Twilight
Nautical Twilight
Astronomical Twilight
Moon
Length of Visible Light
Length of Day
Tomorrow will be .
, % of the Moon is Illuminated

Today's Extremes

State Highs State Lows

Community

WunderPhotos

Upload Photos

1,962,540 photos uploaded!

WunderBlog® & News

Nearby

Air Quality

  Air Quality AQ Index Pollutant
Not available.

Snow Depth

Station Depth Elevation

Earthquake Activity

City Distance Mag. Time & Date
Minimum magnitude displayed is 2.5.

Earthquake Activity

City Distance Mag. Time & Date
Minimum magnitude displayed is 2.5.

Coastal Water Temperatures

Place Temperature

Stations

Nearby Weather Stations

Station Location Temp. Windchill Dew Point Humidity Wind Precip. Elev Updated Type
                   

Watches & Warnings

There are currently no watches in effect.